Swineford, Pennsylvania
Current Conditions -  °F | °C
As of 6:53 AM on Wednesday 28 Jan 2015 (Local Time) from KSEG Reporting Station
Clear Clear  
Wind Chill:   Ceiling: Unl
Heat Index: 15°   Visibility: 10mi
Dew Point:   Wind: 6mph
Humidity: 56%   Direction: 290°WNW
Pressure: 30.16"   Gusts: NA
Location:  40.7851°N, 77.0335°W
Report Text: KSEG 281153Z AUTO 29005KT 10SM CLR M09/M17 A3016 RMK AO2 SLP219 T10941167 11094 21167 52028
Loading
Personal Weather Stations






























Interactive Weather Map New forecast layout! Learn more

10-Day Weather Forecast

Advertisements
Track Severe Weather on mobile